Riverton, Washington
Current Conditions -  °F | °C
As of 4:53 PM on Sunday 23 Nov 2014 (Local Time) from KSEA Reporting Station
Scattered Clouds Scattered Clouds  
Wind Chill: 45°   Ceiling: Unl
Heat Index: 49°   Visibility: 10mi
Dew Point: 39°   Wind: 8mph
Humidity: 69%   Direction: 220°SW
Pressure: 30.21"   Gusts: NA
Location:  47.4488°N, 122.28°W
Report Text: KSEA 240053Z 22007KT 10SM FEW030 SCT200 09/04 A3021 RMK AO2 SLP236 T00940039
Loading
Personal Weather Stations






























Interactive Weather Map New forecast layout! Learn more

10-Day Weather Forecast

Advertisements
Track Severe Weather on mobile